sensor_id;sensor_type;location;lat;lon;timestamp;P1;durP1;ratioP1;P2;durP2;ratioP2
8044;SDS011;4065;48.754;9.982;2023-04-15T00:02:27;7.68;;;6.28;;
8044;SDS011;4065;48.754;9.982;2023-04-15T00:05:49;7.53;;;5.97;;
8044;SDS011;4065;48.754;9.982;2023-04-15T00:09:12;8.88;;;5.75;;
8044;SDS011;4065;48.754;9.982;2023-04-15T00:12:34;8.07;;;5.95;;
8044;SDS011;4065;48.754;9.982;2023-04-15T00:15:56;5.80;;;5.30;;
8044;SDS011;4065;48.754;9.982;2023-04-15T00:19:18;6.18;;;4.97;;
8044;SDS011;4065;48.754;9.982;2023-04-15T00:22:40;5.53;;;5.03;;
8044;SDS011;4065;48.754;9.982;2023-04-15T00:26:03;5.95;;;5.20;;
8044;SDS011;4065;48.754;9.982;2023-04-15T00:29:25;5.35;;;4.57;;
8044;SDS011;4065;48.754;9.982;2023-04-15T00:32:47;4.88;;;4.47;;
8044;SDS011;4065;48.754;9.982;2023-04-15T00:36:09;7.18;;;5.15;;
8044;SDS011;4065;48.754;9.982;2023-04-15T00:39:31;5.47;;;4.75;;
8044;SDS011;4065;48.754;9.982;2023-04-15T00:42:54;5.50;;;4.43;;
8044;SDS011;4065;48.754;9.982;2023-04-15T00:46:16;4.82;;;4.47;;
8044;SDS011;4065;48.754;9.982;2023-04-15T00:49:37;5.85;;;4.45;;
8044;SDS011;4065;48.754;9.982;2023-04-15T00:52:59;4.90;;;4.40;;
8044;SDS011;4065;48.754;9.982;2023-04-15T00:56:21;4.57;;;4.18;;
8044;SDS011;4065;48.754;9.982;2023-04-15T00:59:45;6.20;;;4.45;;
8044;SDS011;4065;48.754;9.982;2023-04-15T01:03:07;5.00;;;4.50;;
8044;SDS011;4065;48.754;9.982;2023-04-15T01:06:29;4.50;;;4.10;;
8044;SDS011;4065;48.754;9.982;2023-04-15T01:09:51;4.57;;;4.18;;
8044;SDS011;4065;48.754;9.982;2023-04-15T01:13:13;4.57;;;4.28;;
8044;SDS011;4065;48.754;9.982;2023-04-15T01:16:36;4.50;;;4.20;;
8044;SDS011;4065;48.754;9.982;2023-04-15T01:20:00;4.88;;;4.28;;
8044;SDS011;4065;48.754;9.982;2023-04-15T01:23:22;5.05;;;4.05;;
8044;SDS011;4065;48.754;9.982;2023-04-15T01:26:45;4.18;;;3.90;;
8044;SDS011;4065;48.754;9.982;2023-04-15T01:30:08;4.43;;;4.13;;
8044;SDS011;4065;48.754;9.982;2023-04-15T01:33:31;5.03;;;4.40;;
8044;SDS011;4065;48.754;9.982;2023-04-15T01:36:52;4.75;;;4.40;;
8044;SDS011;4065;48.754;9.982;2023-04-15T01:40:14;5.15;;;4.07;;
8044;SDS011;4065;48.754;9.982;2023-04-15T01:43:38;5.05;;;4.50;;
8044;SDS011;4065;48.754;9.982;2023-04-15T01:46:59;4.22;;;3.83;;
8044;SDS011;4065;48.754;9.982;2023-04-15T01:50:21;4.88;;;4.38;;
8044;SDS011;4065;48.754;9.982;2023-04-15T01:53:43;5.03;;;4.55;;
8044;SDS011;4065;48.754;9.982;2023-04-15T01:57:05;4.45;;;4.05;;
8044;SDS011;4065;48.754;9.982;2023-04-15T02:00:29;4.82;;;4.38;;
8044;SDS011;4065;48.754;9.982;2023-04-15T02:03:51;4.55;;;4.20;;
8044;SDS011;4065;48.754;9.982;2023-04-15T02:07:13;4.45;;;4.15;;
8044;SDS011;4065;48.754;9.982;2023-04-15T02:10:35;5.15;;;4.72;;
8044;SDS011;4065;48.754;9.982;2023-04-15T02:13:57;7.47;;;5.40;;
8044;SDS011;4065;48.754;9.982;2023-04-15T02:17:20;5.45;;;4.95;;
8044;SDS011;4065;48.754;9.982;2023-04-15T02:20:42;4.70;;;4.35;;
8044;SDS011;4065;48.754;9.982;2023-04-15T02:24:05;5.72;;;4.45;;
8044;SDS011;4065;48.754;9.982;2023-04-15T02:27:27;4.65;;;4.25;;
8044;SDS011;4065;48.754;9.982;2023-04-15T02:30:49;4.50;;;4.10;;
8044;SDS011;4065;48.754;9.982;2023-04-15T02:34:13;4.75;;;4.35;;
8044;SDS011;4065;48.754;9.982;2023-04-15T02:37:36;4.45;;;4.15;;
8044;SDS011;4065;48.754;9.982;2023-04-15T02:41:02;4.85;;;4.55;;
8044;SDS011;4065;48.754;9.982;2023-04-15T02:44:24;4.28;;;3.97;;
8044;SDS011;4065;48.754;9.982;2023-04-15T02:47:46;7.00;;;4.18;;
8044;SDS011;4065;48.754;9.982;2023-04-15T02:51:13;5.13;;;4.40;;
8044;SDS011;4065;48.754;9.982;2023-04-15T02:54:36;4.45;;;4.15;;
8044;SDS011;4065;48.754;9.982;2023-04-15T02:57:57;4.85;;;4.20;;
8044;SDS011;4065;48.754;9.982;2023-04-15T03:01:20;4.78;;;4.38;;
8044;SDS011;4065;48.754;9.982;2023-04-15T03:04:42;4.88;;;4.55;;
8044;SDS011;4065;48.754;9.982;2023-04-15T03:08:05;4.88;;;4.47;;
8044;SDS011;4065;48.754;9.982;2023-04-15T03:11:27;5.03;;;4.53;;
8044;SDS011;4065;48.754;9.982;2023-04-15T03:14:49;5.43;;;4.75;;
8044;SDS011;4065;48.754;9.982;2023-04-15T03:18:11;4.18;;;3.88;;
8044;SDS011;4065;48.754;9.982;2023-04-15T03:21:33;4.30;;;4.00;;
8044;SDS011;4065;48.754;9.982;2023-04-15T03:24:56;4.38;;;4.07;;
8044;SDS011;4065;48.754;9.982;2023-04-15T03:28:18;4.40;;;4.10;;
8044;SDS011;4065;48.754;9.982;2023-04-15T03:31:40;4.95;;;4.40;;
8044;SDS011;4065;48.754;9.982;2023-04-15T03:35:01;4.53;;;4.22;;
8044;SDS011;4065;48.754;9.982;2023-04-15T03:38:23;5.03;;;4.60;;
8044;SDS011;4065;48.754;9.982;2023-04-15T03:41:46;4.30;;;4.00;;
8044;SDS011;4065;48.754;9.982;2023-04-15T03:45:09;4.88;;;4.47;;
8044;SDS011;4065;48.754;9.982;2023-04-15T03:48:31;7.57;;;3.92;;
8044;SDS011;4065;48.754;9.982;2023-04-15T03:51:53;4.38;;;4.05;;
8044;SDS011;4065;48.754;9.982;2023-04-15T03:55:15;4.25;;;3.95;;
8044;SDS011;4065;48.754;9.982;2023-04-15T03:58:38;4.68;;;4.30;;
8044;SDS011;4065;48.754;9.982;2023-04-15T04:02:00;4.65;;;4.35;;
8044;SDS011;4065;48.754;9.982;2023-04-15T04:05:22;5.72;;;5.00;;
8044;SDS011;4065;48.754;9.982;2023-04-15T04:08:43;4.68;;;4.38;;
8044;SDS011;4065;48.754;9.982;2023-04-15T04:12:05;4.60;;;4.30;;
8044;SDS011;4065;48.754;9.982;2023-04-15T04:15:29;5.75;;;4.47;;
8044;SDS011;4065;48.754;9.982;2023-04-15T04:18:51;5.10;;;4.22;;
8044;SDS011;4065;48.754;9.982;2023-04-15T04:22:13;5.20;;;4.70;;
8044;SDS011;4065;48.754;9.982;2023-04-15T04:25:35;4.60;;;4.30;;
8044;SDS011;4065;48.754;9.982;2023-04-15T04:28:56;5.15;;;4.65;;
8044;SDS011;4065;48.754;9.982;2023-04-15T04:32:20;5.93;;;5.43;;
8044;SDS011;4065;48.754;9.982;2023-04-15T04:35:41;5.65;;;5.15;;
8044;SDS011;4065;48.754;9.982;2023-04-15T04:39:03;5.13;;;4.72;;
8044;SDS011;4065;48.754;9.982;2023-04-15T04:42:25;5.78;;;5.20;;
8044;SDS011;4065;48.754;9.982;2023-04-15T04:45:47;5.43;;;4.95;;
8044;SDS011;4065;48.754;9.982;2023-04-15T04:49:10;5.90;;;5.20;;
8044;SDS011;4065;48.754;9.982;2023-04-15T04:52:32;5.68;;;5.15;;
8044;SDS011;4065;48.754;9.982;2023-04-15T04:55:54;4.80;;;4.50;;
8044;SDS011;4065;48.754;9.982;2023-04-15T04:59:15;5.30;;;4.90;;
8044;SDS011;4065;48.754;9.982;2023-04-15T05:02:37;4.82;;;4.43;;
8044;SDS011;4065;48.754;9.982;2023-04-15T05:06:02;4.78;;;4.32;;
8044;SDS011;4065;48.754;9.982;2023-04-15T05:09:25;4.50;;;4.20;;
8044;SDS011;4065;48.754;9.982;2023-04-15T05:12:48;4.72;;;4.43;;
8044;SDS011;4065;48.754;9.982;2023-04-15T05:16:11;9.02;;;6.05;;
8044;SDS011;4065;48.754;9.982;2023-04-15T05:19:33;6.80;;;4.75;;
8044;SDS011;4065;48.754;9.982;2023-04-15T05:22:56;5.55;;;4.68;;
8044;SDS011;4065;48.754;9.982;2023-04-15T05:26:18;5.30;;;4.80;;
8044;SDS011;4065;48.754;9.982;2023-04-15T05:29:41;6.30;;;5.65;;
8044;SDS011;4065;48.754;9.982;2023-04-15T05:33:03;5.85;;;5.18;;
8044;SDS011;4065;48.754;9.982;2023-04-15T05:36:24;5.95;;;4.75;;
8044;SDS011;4065;48.754;9.982;2023-04-15T05:39:50;5.00;;;4.60;;
8044;SDS011;4065;48.754;9.982;2023-04-15T05:43:12;4.60;;;4.18;;
8044;SDS011;4065;48.754;9.982;2023-04-15T05:46:34;5.93;;;4.30;;
8044;SDS011;4065;48.754;9.982;2023-04-15T05:49:55;8.10;;;6.00;;
8044;SDS011;4065;48.754;9.982;2023-04-15T05:53:18;5.30;;;4.78;;
8044;SDS011;4065;48.754;9.982;2023-04-15T05:56:42;6.00;;;4.30;;
8044;SDS011;4065;48.754;9.982;2023-04-15T06:00:04;5.82;;;5.00;;
8044;SDS011;4065;48.754;9.982;2023-04-15T06:03:27;5.53;;;4.68;;
8044;SDS011;4065;48.754;9.982;2023-04-15T06:06:48;6.93;;;6.05;;
8044;SDS011;4065;48.754;9.982;2023-04-15T06:10:10;6.50;;;4.63;;
8044;SDS011;4065;48.754;9.982;2023-04-15T06:13:33;6.68;;;4.53;;
8044;SDS011;4065;48.754;9.982;2023-04-15T06:16:55;5.82;;;4.30;;
8044;SDS011;4065;48.754;9.982;2023-04-15T06:20:17;7.28;;;4.70;;
8044;SDS011;4065;48.754;9.982;2023-04-15T06:23:40;8.98;;;4.57;;
8044;SDS011;4065;48.754;9.982;2023-04-15T06:27:02;9.15;;;4.78;;
8044;SDS011;4065;48.754;9.982;2023-04-15T06:30:26;4.35;;;3.85;;
8044;SDS011;4065;48.754;9.982;2023-04-15T06:33:47;7.07;;;4.47;;
8044;SDS011;4065;48.754;9.982;2023-04-15T06:37:10;6.93;;;4.30;;
8044;SDS011;4065;48.754;9.982;2023-04-15T06:40:35;7.20;;;4.35;;
8044;SDS011;4065;48.754;9.982;2023-04-15T06:43:57;7.85;;;4.47;;
8044;SDS011;4065;48.754;9.982;2023-04-15T06:47:20;5.93;;;3.90;;
8044;SDS011;4065;48.754;9.982;2023-04-15T06:50:42;7.00;;;4.03;;
8044;SDS011;4065;48.754;9.982;2023-04-15T06:54:04;7.13;;;4.43;;
8044;SDS011;4065;48.754;9.982;2023-04-15T06:57:26;8.63;;;4.30;;
8044;SDS011;4065;48.754;9.982;2023-04-15T07:00:48;7.53;;;4.20;;
8044;SDS011;4065;48.754;9.982;2023-04-15T07:04:11;6.53;;;4.53;;
8044;SDS011;4065;48.754;9.982;2023-04-15T07:07:33;6.30;;;4.35;;
8044;SDS011;4065;48.754;9.982;2023-04-15T07:10:55;5.75;;;3.72;;
8044;SDS011;4065;48.754;9.982;2023-04-15T07:14:17;7.00;;;4.03;;
8044;SDS011;4065;48.754;9.982;2023-04-15T07:17:41;6.03;;;4.32;;
8044;SDS011;4065;48.754;9.982;2023-04-15T07:21:07;8.82;;;4.70;;
8044;SDS011;4065;48.754;9.982;2023-04-15T07:24:29;6.00;;;4.90;;
8044;SDS011;4065;48.754;9.982;2023-04-15T07:27:51;10.40;;;8.70;;
8044;SDS011;4065;48.754;9.982;2023-04-15T07:31:13;6.57;;;5.38;;
8044;SDS011;4065;48.754;9.982;2023-04-15T07:34:36;7.38;;;4.60;;
8044;SDS011;4065;48.754;9.982;2023-04-15T07:37:59;5.57;;;4.13;;
8044;SDS011;4065;48.754;9.982;2023-04-15T07:41:22;9.38;;;4.15;;
8044;SDS011;4065;48.754;9.982;2023-04-15T07:44:45;8.52;;;4.38;;
8044;SDS011;4065;48.754;9.982;2023-04-15T07:48:06;11.70;;;4.82;;
8044;SDS011;4065;48.754;9.982;2023-04-15T07:51:28;7.70;;;4.82;;
8044;SDS011;4065;48.754;9.982;2023-04-15T07:54:52;8.45;;;4.30;;
8044;SDS011;4065;48.754;9.982;2023-04-15T07:58:15;5.15;;;3.92;;
8044;SDS011;4065;48.754;9.982;2023-04-15T08:01:36;8.63;;;4.10;;
8044;SDS011;4065;48.754;9.982;2023-04-15T08:04:58;5.45;;;4.30;;
8044;SDS011;4065;48.754;9.982;2023-04-15T08:08:22;6.28;;;3.90;;
8044;SDS011;4065;48.754;9.982;2023-04-15T08:11:46;6.13;;;4.38;;
8044;SDS011;4065;48.754;9.982;2023-04-15T08:15:09;6.65;;;4.45;;
8044;SDS011;4065;48.754;9.982;2023-04-15T08:18:32;6.80;;;4.22;;
8044;SDS011;4065;48.754;9.982;2023-04-15T08:21:56;5.88;;;4.20;;
8044;SDS011;4065;48.754;9.982;2023-04-15T08:25:18;6.75;;;4.50;;
8044;SDS011;4065;48.754;9.982;2023-04-15T08:28:43;6.55;;;4.78;;
8044;SDS011;4065;48.754;9.982;2023-04-15T08:32:06;5.60;;;4.50;;
8044;SDS011;4065;48.754;9.982;2023-04-15T08:35:28;7.75;;;4.57;;
8044;SDS011;4065;48.754;9.982;2023-04-15T08:38:50;7.05;;;4.63;;
8044;SDS011;4065;48.754;9.982;2023-04-15T08:42:15;5.90;;;4.53;;
8044;SDS011;4065;48.754;9.982;2023-04-15T08:45:39;8.15;;;4.65;;
8044;SDS011;4065;48.754;9.982;2023-04-15T08:49:02;6.30;;;4.72;;
8044;SDS011;4065;48.754;9.982;2023-04-15T08:52:25;6.07;;;4.75;;
8044;SDS011;4065;48.754;9.982;2023-04-15T08:55:49;5.85;;;5.00;;
8044;SDS011;4065;48.754;9.982;2023-04-15T08:59:12;8.27;;;4.85;;
8044;SDS011;4065;48.754;9.982;2023-04-15T09:02:35;5.03;;;4.53;;
8044;SDS011;4065;48.754;9.982;2023-04-15T09:05:57;5.13;;;4.63;;
8044;SDS011;4065;48.754;9.982;2023-04-15T09:09:20;6.13;;;4.93;;
8044;SDS011;4065;48.754;9.982;2023-04-15T09:12:42;9.18;;;4.68;;
8044;SDS011;4065;48.754;9.982;2023-04-15T09:16:04;5.40;;;4.25;;
8044;SDS011;4065;48.754;9.982;2023-04-15T09:19:28;8.80;;;4.68;;
8044;SDS011;4065;48.754;9.982;2023-04-15T09:22:52;6.63;;;4.93;;
8044;SDS011;4065;48.754;9.982;2023-04-15T09:26:17;5.97;;;4.70;;
8044;SDS011;4065;48.754;9.982;2023-04-15T09:29:39;5.40;;;4.35;;
8044;SDS011;4065;48.754;9.982;2023-04-15T09:33:02;5.28;;;4.75;;
8044;SDS011;4065;48.754;9.982;2023-04-15T09:36:28;5.45;;;4.95;;
8044;SDS011;4065;48.754;9.982;2023-04-15T09:39:51;9.60;;;5.47;;
8044;SDS011;4065;48.754;9.982;2023-04-15T09:43:13;6.80;;;5.72;;
8044;SDS011;4065;48.754;9.982;2023-04-15T09:46:39;8.82;;;6.03;;
8044;SDS011;4065;48.754;9.982;2023-04-15T09:50:02;9.50;;;5.93;;
8044;SDS011;4065;48.754;9.982;2023-04-15T09:53:26;9.43;;;6.10;;
8044;SDS011;4065;48.754;9.982;2023-04-15T09:56:48;9.02;;;6.68;;
8044;SDS011;4065;48.754;9.982;2023-04-15T10:00:12;5.78;;;5.25;;
8044;SDS011;4065;48.754;9.982;2023-04-15T10:03:34;9.85;;;6.38;;
8044;SDS011;4065;48.754;9.982;2023-04-15T10:06:56;11.45;;;6.47;;
8044;SDS011;4065;48.754;9.982;2023-04-15T10:10:20;7.47;;;5.65;;
8044;SDS011;4065;48.754;9.982;2023-04-15T10:13:42;8.02;;;6.78;;
8044;SDS011;4065;48.754;9.982;2023-04-15T10:17:04;9.88;;;6.30;;
8044;SDS011;4065;48.754;9.982;2023-04-15T10:20:26;9.07;;;6.07;;
8044;SDS011;4065;48.754;9.982;2023-04-15T10:23:49;8.95;;;6.45;;
8044;SDS011;4065;48.754;9.982;2023-04-15T10:27:13;7.55;;;6.35;;
8044;SDS011;4065;48.754;9.982;2023-04-15T10:30:35;7.60;;;6.20;;
8044;SDS011;4065;48.754;9.982;2023-04-15T10:33:57;7.00;;;6.30;;
8044;SDS011;4065;48.754;9.982;2023-04-15T10:37:32;7.78;;;5.63;;
8044;SDS011;4065;48.754;9.982;2023-04-15T10:40:55;6.07;;;5.47;;
8044;SDS011;4065;48.754;9.982;2023-04-15T10:44:35;8.23;;;6.68;;
8044;SDS011;4065;48.754;9.982;2023-04-15T10:48:00;6.72;;;5.95;;
8044;SDS011;4065;48.754;9.982;2023-04-15T10:51:27;10.20;;;6.30;;
8044;SDS011;4065;48.754;9.982;2023-04-15T10:54:50;7.90;;;6.00;;
8044;SDS011;4065;48.754;9.982;2023-04-15T10:58:22;7.20;;;5.75;;
8044;SDS011;4065;48.754;9.982;2023-04-15T11:01:53;8.10;;;5.90;;
8044;SDS011;4065;48.754;9.982;2023-04-15T11:05:17;9.13;;;6.85;;
8044;SDS011;4065;48.754;9.982;2023-04-15T11:08:52;7.20;;;6.03;;
8044;SDS011;4065;48.754;9.982;2023-04-15T11:12:15;9.52;;;7.68;;
8044;SDS011;4065;48.754;9.982;2023-04-15T11:15:37;10.48;;;7.63;;
8044;SDS011;4065;48.754;9.982;2023-04-15T11:19:01;10.65;;;7.55;;
8044;SDS011;4065;48.754;9.982;2023-04-15T11:22:23;9.05;;;6.90;;
8044;SDS011;4065;48.754;9.982;2023-04-15T11:25:44;9.15;;;7.70;;
8044;SDS011;4065;48.754;9.982;2023-04-15T11:29:07;9.68;;;6.65;;
8044;SDS011;4065;48.754;9.982;2023-04-15T11:32:40;10.70;;;7.32;;
8044;SDS011;4065;48.754;9.982;2023-04-15T11:36:04;8.98;;;7.03;;
8044;SDS011;4065;48.754;9.982;2023-04-15T11:39:27;11.20;;;7.18;;
8044;SDS011;4065;48.754;9.982;2023-04-15T11:43:02;7.53;;;6.68;;
8044;SDS011;4065;48.754;9.982;2023-04-15T11:46:27;7.35;;;6.35;;
8044;SDS011;4065;48.754;9.982;2023-04-15T11:49:50;8.40;;;6.25;;
8044;SDS011;4065;48.754;9.982;2023-04-15T11:53:13;8.40;;;6.32;;
8044;SDS011;4065;48.754;9.982;2023-04-15T11:56:35;7.43;;;5.90;;
8044;SDS011;4065;48.754;9.982;2023-04-15T11:59:57;9.25;;;7.22;;
8044;SDS011;4065;48.754;9.982;2023-04-15T12:03:23;7.88;;;6.20;;
8044;SDS011;4065;48.754;9.982;2023-04-15T12:06:45;7.90;;;6.07;;
8044;SDS011;4065;48.754;9.982;2023-04-15T12:10:08;7.63;;;6.75;;
8044;SDS011;4065;48.754;9.982;2023-04-15T12:13:30;8.10;;;5.18;;
8044;SDS011;4065;48.754;9.982;2023-04-15T12:16:52;7.32;;;5.07;;
8044;SDS011;4065;48.754;9.982;2023-04-15T12:20:19;6.55;;;5.18;;
8044;SDS011;4065;48.754;9.982;2023-04-15T12:23:47;6.50;;;5.38;;
8044;SDS011;4065;48.754;9.982;2023-04-15T12:27:11;4.70;;;3.70;;
8044;SDS011;4065;48.754;9.982;2023-04-15T12:30:33;5.38;;;3.72;;
8044;SDS011;4065;48.754;9.982;2023-04-15T12:33:55;4.13;;;2.83;;
8044;SDS011;4065;48.754;9.982;2023-04-15T12:37:18;5.93;;;3.78;;
8044;SDS011;4065;48.754;9.982;2023-04-15T12:40:39;5.85;;;4.10;;
8044;SDS011;4065;48.754;9.982;2023-04-15T12:44:03;4.68;;;3.95;;
8044;SDS011;4065;48.754;9.982;2023-04-15T12:47:24;5.60;;;3.38;;
8044;SDS011;4065;48.754;9.982;2023-04-15T12:50:46;4.35;;;3.40;;
8044;SDS011;4065;48.754;9.982;2023-04-15T12:54:08;6.22;;;4.88;;
8044;SDS011;4065;48.754;9.982;2023-04-15T12:57:30;7.18;;;4.00;;
8044;SDS011;4065;48.754;9.982;2023-04-15T13:00:53;8.48;;;5.03;;
8044;SDS011;4065;48.754;9.982;2023-04-15T13:04:18;4.95;;;4.03;;
8044;SDS011;4065;48.754;9.982;2023-04-15T13:07:41;4.90;;;3.58;;
8044;SDS011;4065;48.754;9.982;2023-04-15T13:11:02;3.80;;;3.47;;
8044;SDS011;4065;48.754;9.982;2023-04-15T13:14:25;6.68;;;3.95;;
8044;SDS011;4065;48.754;9.982;2023-04-15T13:17:48;4.03;;;3.50;;
8044;SDS011;4065;48.754;9.982;2023-04-15T13:21:10;6.18;;;4.22;;
8044;SDS011;4065;48.754;9.982;2023-04-15T13:24:33;4.95;;;3.60;;
8044;SDS011;4065;48.754;9.982;2023-04-15T13:27:54;5.00;;;4.50;;
8044;SDS011;4065;48.754;9.982;2023-04-15T13:31:18;4.20;;;3.80;;
8044;SDS011;4065;48.754;9.982;2023-04-15T13:34:57;6.10;;;3.97;;
8044;SDS011;4065;48.754;9.982;2023-04-15T13:38:30;3.60;;;3.30;;
8044;SDS011;4065;48.754;9.982;2023-04-15T13:41:54;5.25;;;3.75;;
8044;SDS011;4065;48.754;9.982;2023-04-15T13:45:17;6.38;;;4.00;;
8044;SDS011;4065;48.754;9.982;2023-04-15T13:48:38;3.35;;;3.10;;
8044;SDS011;4065;48.754;9.982;2023-04-15T13:52:02;3.60;;;3.20;;
8044;SDS011;4065;48.754;9.982;2023-04-15T13:55:23;3.03;;;2.70;;
8044;SDS011;4065;48.754;9.982;2023-04-15T13:58:46;3.88;;;2.90;;
8044;SDS011;4065;48.754;9.982;2023-04-15T14:02:10;3.03;;;2.72;;
8044;SDS011;4065;48.754;9.982;2023-04-15T14:05:34;3.33;;;2.95;;
8044;SDS011;4065;48.754;9.982;2023-04-15T14:08:59;3.10;;;2.80;;
8044;SDS011;4065;48.754;9.982;2023-04-15T14:12:21;2.45;;;2.35;;
8044;SDS011;4065;48.754;9.982;2023-04-15T14:15:43;3.90;;;2.70;;
8044;SDS011;4065;48.754;9.982;2023-04-15T14:19:05;3.88;;;3.00;;
8044;SDS011;4065;48.754;9.982;2023-04-15T14:22:27;2.85;;;2.65;;
8044;SDS011;4065;48.754;9.982;2023-04-15T14:25:50;4.80;;;3.35;;
8044;SDS011;4065;48.754;9.982;2023-04-15T14:29:13;2.85;;;2.65;;
8044;SDS011;4065;48.754;9.982;2023-04-15T14:32:36;4.80;;;3.35;;
8044;SDS011;4065;48.754;9.982;2023-04-15T14:35:57;3.03;;;2.70;;
8044;SDS011;4065;48.754;9.982;2023-04-15T14:39:19;2.80;;;2.50;;
8044;SDS011;4065;48.754;9.982;2023-04-15T14:42:43;3.08;;;2.63;;
8044;SDS011;4065;48.754;9.982;2023-04-15T14:46:05;3.08;;;2.42;;
8044;SDS011;4065;48.754;9.982;2023-04-15T14:49:27;3.42;;;2.70;;
8044;SDS011;4065;48.754;9.982;2023-04-15T14:52:49;4.00;;;2.60;;
8044;SDS011;4065;48.754;9.982;2023-04-15T14:56:11;3.83;;;2.92;;
8044;SDS011;4065;48.754;9.982;2023-04-15T14:59:36;3.22;;;3.00;;
8044;SDS011;4065;48.754;9.982;2023-04-15T15:02:57;4.65;;;4.20;;
8044;SDS011;4065;48.754;9.982;2023-04-15T15:06:19;3.55;;;3.20;;
8044;SDS011;4065;48.754;9.982;2023-04-15T15:09:42;4.63;;;3.08;;
8044;SDS011;4065;48.754;9.982;2023-04-15T15:13:04;5.53;;;3.83;;
8044;SDS011;4065;48.754;9.982;2023-04-15T15:16:28;3.80;;;2.78;;
8044;SDS011;4065;48.754;9.982;2023-04-15T15:19:50;5.15;;;4.60;;
8044;SDS011;4065;48.754;9.982;2023-04-15T15:23:12;10.30;;;7.25;;
8044;SDS011;4065;48.754;9.982;2023-04-15T15:26:34;6.75;;;5.22;;
8044;SDS011;4065;48.754;9.982;2023-04-15T15:29:57;11.93;;;7.90;;
8044;SDS011;4065;48.754;9.982;2023-04-15T15:33:23;5.78;;;5.28;;
8044;SDS011;4065;48.754;9.982;2023-04-15T15:36:45;4.53;;;3.83;;
8044;SDS011;4065;48.754;9.982;2023-04-15T15:40:08;4.18;;;3.53;;
8044;SDS011;4065;48.754;9.982;2023-04-15T15:43:31;3.72;;;3.42;;
8044;SDS011;4065;48.754;9.982;2023-04-15T15:46:55;4.15;;;3.85;;
8044;SDS011;4065;48.754;9.982;2023-04-15T15:50:18;3.53;;;3.33;;
8044;SDS011;4065;48.754;9.982;2023-04-15T15:53:43;4.60;;;4.20;;
8044;SDS011;4065;48.754;9.982;2023-04-15T15:57:05;6.00;;;4.88;;
8044;SDS011;4065;48.754;9.982;2023-04-15T16:00:27;3.72;;;3.42;;
8044;SDS011;4065;48.754;9.982;2023-04-15T16:03:48;4.10;;;3.80;;
8044;SDS011;4065;48.754;9.982;2023-04-15T16:07:14;5.22;;;4.43;;
8044;SDS011;4065;48.754;9.982;2023-04-15T16:10:36;5.40;;;4.95;;
8044;SDS011;4065;48.754;9.982;2023-04-15T16:13:58;5.47;;;4.97;;
8044;SDS011;4065;48.754;9.982;2023-04-15T16:17:20;5.47;;;4.93;;
8044;SDS011;4065;48.754;9.982;2023-04-15T16:20:42;9.38;;;7.53;;
8044;SDS011;4065;48.754;9.982;2023-04-15T16:24:05;5.95;;;5.38;;
8044;SDS011;4065;48.754;9.982;2023-04-15T16:27:27;5.90;;;5.40;;
8044;SDS011;4065;48.754;9.982;2023-04-15T16:30:49;6.57;;;5.40;;
8044;SDS011;4065;48.754;9.982;2023-04-15T16:34:11;8.38;;;5.53;;
8044;SDS011;4065;48.754;9.982;2023-04-15T16:37:35;6.63;;;5.93;;
8044;SDS011;4065;48.754;9.982;2023-04-15T16:40:58;6.68;;;6.03;;
8044;SDS011;4065;48.754;9.982;2023-04-15T16:44:21;6.88;;;6.18;;
8044;SDS011;4065;48.754;9.982;2023-04-15T16:47:43;6.13;;;5.63;;
8044;SDS011;4065;48.754;9.982;2023-04-15T16:51:05;7.68;;;6.93;;
8044;SDS011;4065;48.754;9.982;2023-04-15T16:54:27;7.35;;;6.72;;
8044;SDS011;4065;48.754;9.982;2023-04-15T16:57:50;6.75;;;6.05;;
8044;SDS011;4065;48.754;9.982;2023-04-15T17:01:12;7.18;;;6.50;;
8044;SDS011;4065;48.754;9.982;2023-04-15T17:04:37;6.97;;;6.38;;
8044;SDS011;4065;48.754;9.982;2023-04-15T17:08:00;5.75;;;5.25;;
8044;SDS011;4065;48.754;9.982;2023-04-15T17:11:22;7.00;;;6.40;;
8044;SDS011;4065;48.754;9.982;2023-04-15T17:14:46;6.22;;;5.72;;
8044;SDS011;4065;48.754;9.982;2023-04-15T17:18:08;6.88;;;6.28;;
8044;SDS011;4065;48.754;9.982;2023-04-15T17:21:31;6.57;;;5.80;;
8044;SDS011;4065;48.754;9.982;2023-04-15T17:24:53;6.45;;;5.90;;
8044;SDS011;4065;48.754;9.982;2023-04-15T17:28:15;6.03;;;5.43;;
8044;SDS011;4065;48.754;9.982;2023-04-15T17:31:38;6.82;;;6.22;;
8044;SDS011;4065;48.754;9.982;2023-04-15T17:35:00;5.05;;;4.65;;
8044;SDS011;4065;48.754;9.982;2023-04-15T17:38:25;5.60;;;5.10;;
8044;SDS011;4065;48.754;9.982;2023-04-15T17:41:47;8.35;;;7.53;;
8044;SDS011;4065;48.754;9.982;2023-04-15T17:45:10;8.10;;;7.30;;
8044;SDS011;4065;48.754;9.982;2023-04-15T17:48:33;6.70;;;6.10;;
8044;SDS011;4065;48.754;9.982;2023-04-15T17:51:55;6.20;;;5.60;;
8044;SDS011;4065;48.754;9.982;2023-04-15T17:55:17;6.25;;;5.68;;
8044;SDS011;4065;48.754;9.982;2023-04-15T17:58:41;5.40;;;5.00;;
8044;SDS011;4065;48.754;9.982;2023-04-15T18:02:03;5.95;;;5.40;;
8044;SDS011;4065;48.754;9.982;2023-04-15T18:05:28;4.68;;;4.38;;
8044;SDS011;4065;48.754;9.982;2023-04-15T18:08:50;5.65;;;5.15;;
8044;SDS011;4065;48.754;9.982;2023-04-15T18:12:12;5.25;;;4.80;;
8044;SDS011;4065;48.754;9.982;2023-04-15T18:15:34;6.00;;;5.40;;
8044;SDS011;4065;48.754;9.982;2023-04-15T18:18:55;5.35;;;4.95;;
8044;SDS011;4065;48.754;9.982;2023-04-15T18:22:19;5.63;;;5.15;;
8044;SDS011;4065;48.754;9.982;2023-04-15T18:25:41;5.80;;;5.30;;
8044;SDS011;4065;48.754;9.982;2023-04-15T18:29:04;5.05;;;4.65;;
8044;SDS011;4065;48.754;9.982;2023-04-15T18:32:25;5.50;;;5.10;;
8044;SDS011;4065;48.754;9.982;2023-04-15T18:35:49;5.22;;;4.63;;
8044;SDS011;4065;48.754;9.982;2023-04-15T18:39:13;5.15;;;4.72;;
8044;SDS011;4065;48.754;9.982;2023-04-15T18:42:36;5.47;;;5.03;;
8044;SDS011;4065;48.754;9.982;2023-04-15T18:45:57;4.90;;;4.50;;
8044;SDS011;4065;48.754;9.982;2023-04-15T18:49:23;5.00;;;4.57;;
8044;SDS011;4065;48.754;9.982;2023-04-15T18:52:46;5.10;;;4.60;;
8044;SDS011;4065;48.754;9.982;2023-04-15T18:56:10;5.28;;;4.82;;
8044;SDS011;4065;48.754;9.982;2023-04-15T18:59:32;4.93;;;4.53;;
8044;SDS011;4065;48.754;9.982;2023-04-15T19:02:58;5.40;;;5.00;;
8044;SDS011;4065;48.754;9.982;2023-04-15T19:06:20;4.28;;;3.97;;
8044;SDS011;4065;48.754;9.982;2023-04-15T19:09:42;4.43;;;4.03;;
8044;SDS011;4065;48.754;9.982;2023-04-15T19:13:05;4.07;;;3.78;;
8044;SDS011;4065;48.754;9.982;2023-04-15T19:16:27;4.93;;;4.53;;
8044;SDS011;4065;48.754;9.982;2023-04-15T19:19:49;4.07;;;3.78;;
8044;SDS011;4065;48.754;9.982;2023-04-15T19:23:11;4.10;;;3.80;;
8044;SDS011;4065;48.754;9.982;2023-04-15T19:26:32;5.05;;;4.65;;
8044;SDS011;4065;48.754;9.982;2023-04-15T19:29:57;4.15;;;3.85;;
8044;SDS011;4065;48.754;9.982;2023-04-15T19:33:19;4.43;;;4.13;;
8044;SDS011;4065;48.754;9.982;2023-04-15T19:36:41;5.53;;;5.13;;
8044;SDS011;4065;48.754;9.982;2023-04-15T19:40:03;4.00;;;3.70;;
8044;SDS011;4065;48.754;9.982;2023-04-15T19:43:26;3.72;;;3.50;;
8044;SDS011;4065;48.754;9.982;2023-04-15T19:46:49;3.38;;;3.17;;
8044;SDS011;4065;48.754;9.982;2023-04-15T19:50:13;3.90;;;3.60;;
8044;SDS011;4065;48.754;9.982;2023-04-15T19:53:35;3.65;;;3.35;;
8044;SDS011;4065;48.754;9.982;2023-04-15T19:56:57;3.80;;;3.50;;
8044;SDS011;4065;48.754;9.982;2023-04-15T20:00:20;3.13;;;2.92;;
8044;SDS011;4065;48.754;9.982;2023-04-15T20:03:44;3.28;;;3.08;;
8044;SDS011;4065;48.754;9.982;2023-04-15T20:07:05;3.22;;;3.03;;
8044;SDS011;4065;48.754;9.982;2023-04-15T20:10:28;3.00;;;2.80;;
8044;SDS011;4065;48.754;9.982;2023-04-15T20:13:50;3.00;;;2.80;;
8044;SDS011;4065;48.754;9.982;2023-04-15T20:17:13;3.30;;;3.10;;
8044;SDS011;4065;48.754;9.982;2023-04-15T20:20:38;3.15;;;2.95;;
8044;SDS011;4065;48.754;9.982;2023-04-15T20:24:00;3.30;;;3.10;;
8044;SDS011;4065;48.754;9.982;2023-04-15T20:27:22;3.10;;;2.90;;
8044;SDS011;4065;48.754;9.982;2023-04-15T20:30:44;3.40;;;3.20;;
8044;SDS011;4065;48.754;9.982;2023-04-15T20:34:06;3.10;;;2.90;;
8044;SDS011;4065;48.754;9.982;2023-04-15T20:37:29;3.65;;;3.45;;
8044;SDS011;4065;48.754;9.982;2023-04-15T20:40:52;3.00;;;2.80;;
8044;SDS011;4065;48.754;9.982;2023-04-15T20:44:14;3.60;;;3.30;;
8044;SDS011;4065;48.754;9.982;2023-04-15T20:47:36;3.40;;;3.20;;
8044;SDS011;4065;48.754;9.982;2023-04-15T20:50:58;3.03;;;2.90;;
8044;SDS011;4065;48.754;9.982;2023-04-15T20:54:21;2.78;;;2.67;;
8044;SDS011;4065;48.754;9.982;2023-04-15T20:57:43;3.08;;;2.72;;
8044;SDS011;4065;48.754;9.982;2023-04-15T21:01:04;3.45;;;3.25;;